createdAt,value
2018-06-21T00:01:43.341Z,9.17
2018-06-21T00:04:10.928Z,10.17
2018-06-21T00:06:38.518Z,10.20
2018-06-21T00:09:06.909Z,9.17
2018-06-21T00:11:34.521Z,8.97
2018-06-21T00:14:02.124Z,10.10
2018-06-21T00:16:29.798Z,10.00
2018-06-21T00:18:57.332Z,9.30
2018-06-21T00:21:24.902Z,8.67
2018-06-21T00:23:52.464Z,10.07
2018-06-21T00:26:20.070Z,9.70
2018-06-21T00:28:47.630Z,9.57
2018-06-21T00:31:15.221Z,9.57
2018-06-21T00:33:42.782Z,9.80
2018-06-21T00:36:10.339Z,9.27
2018-06-21T00:38:37.911Z,9.10
2018-06-21T00:41:05.500Z,9.10
2018-06-21T00:43:33.069Z,9.67
2018-06-21T00:46:00.649Z,8.53
2018-06-21T00:48:28.248Z,9.07
2018-06-21T00:50:55.859Z,8.80
2018-06-21T00:53:23.424Z,9.27
2018-06-21T00:55:56.476Z,8.40
2018-06-21T00:58:24.037Z,8.60
2018-06-21T01:00:51.637Z,9.00
2018-06-21T01:03:19.395Z,9.53
2018-06-21T01:05:46.994Z,9.87
2018-06-21T01:08:14.565Z,9.73
2018-06-21T01:10:42.149Z,9.80
2018-06-21T01:13:09.748Z,10.57
2018-06-21T01:15:37.317Z,10.07
2018-06-21T01:18:04.927Z,8.90
2018-06-21T01:20:32.495Z,9.00
2018-06-21T01:23:00.106Z,10.73
2018-06-21T01:25:27.743Z,9.73
2018-06-21T01:27:55.331Z,10.13
2018-06-21T01:30:22.924Z,10.57
2018-06-21T01:32:50.508Z,9.93
2018-06-21T01:35:18.150Z,11.03
2018-06-21T01:37:45.733Z,10.17
2018-06-21T01:40:13.347Z,10.77
2018-06-21T01:42:40.951Z,10.50
2018-06-21T01:45:08.549Z,9.87
2018-06-21T01:47:36.158Z,10.20
2018-06-21T01:50:03.835Z,9.93
2018-06-21T01:52:31.417Z,10.17
2018-06-21T01:54:59.015Z,10.00
2018-06-21T01:57:26.651Z,10.37
2018-06-21T01:59:54.254Z,10.40
2018-06-21T02:02:21.812Z,10.73
2018-06-21T02:04:49.465Z,9.63
2018-06-21T02:07:17.030Z,9.03
2018-06-21T02:09:44.590Z,10.70
2018-06-21T02:12:12.155Z,10.87
2018-06-21T02:14:39.766Z,9.87
2018-06-21T02:17:07.325Z,10.37
2018-06-21T02:19:34.928Z,10.67
2018-06-21T02:22:02.521Z,10.50
2018-06-21T02:24:30.101Z,10.87
2018-06-21T02:26:57.698Z,11.33
2018-06-21T02:29:25.256Z,9.83
2018-06-21T02:31:52.868Z,10.40
2018-06-21T02:34:20.439Z,10.53
2018-06-21T02:36:48.033Z,10.23
2018-06-21T02:39:15.611Z,10.33
2018-06-21T02:41:43.275Z,10.30
2018-06-21T02:44:10.864Z,10.60
2018-06-21T02:46:38.469Z,10.30
2018-06-21T02:49:06.048Z,10.47
2018-06-21T02:51:33.650Z,10.43
2018-06-21T02:54:01.272Z,11.10
2018-06-21T02:56:28.868Z,10.47
2018-06-21T02:58:56.530Z,10.40
2018-06-21T03:01:24.128Z,10.37
2018-06-21T03:03:51.896Z,11.00
2018-06-21T03:06:19.484Z,10.43
2018-06-21T03:08:47.096Z,11.67
2018-06-21T03:11:14.675Z,12.20
2018-06-21T03:13:42.311Z,12.30
2018-06-21T03:16:09.870Z,10.23
2018-06-21T03:18:37.480Z,10.97
2018-06-21T03:21:05.060Z,10.73
2018-06-21T03:23:32.656Z,12.60
2018-06-21T03:26:00.240Z,11.27
2018-06-21T03:28:27.874Z,11.00
2018-06-21T03:30:55.464Z,10.70
2018-06-21T03:33:23.073Z,11.57
2018-06-21T03:35:50.660Z,11.73
2018-06-21T03:38:18.232Z,11.03
2018-06-21T03:40:45.815Z,11.63
2018-06-21T03:43:13.402Z,10.40
2018-06-21T03:45:41.022Z,11.07
2018-06-21T03:48:08.637Z,10.57
2018-06-21T03:50:36.241Z,11.73
2018-06-21T03:53:03.831Z,12.20
2018-06-21T03:55:31.413Z,11.87
2018-06-21T03:57:58.977Z,11.40
2018-06-21T04:00:26.587Z,12.40
2018-06-21T04:02:54.175Z,10.33
2018-06-21T04:05:21.786Z,12.60
2018-06-21T04:07:49.378Z,11.23
2018-06-21T04:10:16.972Z,12.03
2018-06-21T04:12:44.563Z,12.40
2018-06-21T04:15:12.131Z,11.37
2018-06-21T04:17:39.709Z,11.60
2018-06-21T04:20:07.273Z,13.13
2018-06-21T04:22:34.849Z,13.30
2018-06-21T04:25:02.853Z,12.53
2018-06-21T04:27:30.435Z,12.80
2018-06-21T04:29:58.034Z,11.80
2018-06-21T04:32:25.713Z,13.70
2018-06-21T04:34:53.231Z,13.60
2018-06-21T04:37:20.893Z,13.20
2018-06-21T04:39:48.498Z,13.90
2018-06-21T04:42:16.057Z,14.20
2018-06-21T04:44:43.657Z,12.90
2018-06-21T04:47:11.274Z,15.20
2018-06-21T04:49:38.872Z,12.10
2018-06-21T04:52:06.480Z,13.37
2018-06-21T04:54:34.057Z,13.60
2018-06-21T04:57:01.636Z,13.47
2018-06-21T04:59:29.213Z,12.93
2018-06-21T05:01:56.772Z,14.37
2018-06-21T05:04:24.335Z,14.40
2018-06-21T05:06:51.940Z,14.87
2018-06-21T05:09:19.542Z,13.33
2018-06-21T05:11:47.116Z,13.63
2018-06-21T05:14:14.674Z,14.13
2018-06-21T05:16:42.253Z,12.27
2018-06-21T05:19:09.858Z,12.90
2018-06-21T05:21:37.428Z,14.73
2018-06-21T05:24:05.326Z,14.07
2018-06-21T05:26:32.894Z,13.57
2018-06-21T05:29:01.075Z,14.37
2018-06-21T05:31:28.665Z,13.53
2018-06-21T05:33:56.236Z,14.10
2018-06-21T05:36:23.821Z,13.90
2018-06-21T05:38:51.408Z,13.20
2018-06-21T05:41:19.033Z,14.90
2018-06-21T05:43:46.648Z,14.20
2018-06-21T05:46:14.253Z,13.97
2018-06-21T05:48:41.826Z,14.50
2018-06-21T05:51:09.406Z,13.63
2018-06-21T05:53:36.981Z,13.03
2018-06-21T05:56:05.046Z,12.40
2018-06-21T05:58:32.604Z,12.10
2018-06-21T06:01:00.209Z,12.33
2018-06-21T06:03:27.752Z,13.43
2018-06-21T06:05:55.356Z,12.73
2018-06-21T06:08:23.034Z,13.00
2018-06-21T06:10:50.525Z,13.83
2018-06-21T06:13:18.163Z,12.10
2018-06-21T06:15:45.740Z,12.47
2018-06-21T06:18:13.386Z,12.80
2018-06-21T06:20:40.996Z,11.60
2018-06-21T06:23:08.627Z,13.07
2018-06-21T06:25:36.200Z,13.13
2018-06-21T06:28:03.781Z,12.93
2018-06-21T06:30:31.378Z,11.37
2018-06-21T06:32:58.941Z,12.17
2018-06-21T06:35:29.042Z,13.17
2018-06-21T06:37:56.891Z,12.80
2018-06-21T06:40:24.561Z,12.13
2018-06-21T06:42:52.121Z,12.47
2018-06-21T06:45:19.683Z,11.90
2018-06-21T06:47:47.275Z,12.63
2018-06-21T06:50:14.841Z,11.93
2018-06-21T06:52:42.396Z,11.50
2018-06-21T06:55:10.016Z,11.07
2018-06-21T06:57:37.605Z,11.63
2018-06-21T07:00:05.521Z,12.20
2018-06-21T07:02:33.131Z,11.57
2018-06-21T07:05:00.747Z,10.27
2018-06-21T07:07:28.331Z,11.57
2018-06-21T07:09:56.100Z,11.10
2018-06-21T07:12:23.755Z,12.10
2018-06-21T07:14:51.367Z,10.50
2018-06-21T07:17:18.923Z,11.23
2018-06-21T07:19:46.538Z,11.90
2018-06-21T07:22:14.146Z,11.70
2018-06-21T07:24:41.709Z,10.40
2018-06-21T07:27:09.360Z,10.10
2018-06-21T07:29:36.897Z,11.27
2018-06-21T07:32:04.501Z,12.27
2018-06-21T07:34:32.080Z,11.57
2018-06-21T07:36:59.660Z,12.17
2018-06-21T07:39:27.264Z,12.40
2018-06-21T07:41:54.837Z,12.50
2018-06-21T07:44:22.424Z,11.73
2018-06-21T07:46:49.996Z,12.07
2018-06-21T07:49:17.577Z,12.63
2018-06-21T07:51:45.144Z,12.40
2018-06-21T07:54:12.719Z,11.70
2018-06-21T07:56:40.343Z,11.30
2018-06-21T07:59:07.977Z,11.70
2018-06-21T08:01:35.576Z,10.93
2018-06-21T08:04:03.177Z,12.27
2018-06-21T08:06:30.744Z,10.53
2018-06-21T08:08:58.303Z,10.73
2018-06-21T08:11:25.893Z,11.20
2018-06-21T08:13:53.527Z,11.37
2018-06-21T08:16:21.105Z,10.73
2018-06-21T08:18:48.684Z,11.03
2018-06-21T08:21:16.250Z,11.70
2018-06-21T08:23:43.834Z,11.50
2018-06-21T08:26:11.388Z,11.80
2018-06-21T08:28:38.975Z,11.80
2018-06-21T08:31:06.752Z,11.23
2018-06-21T08:33:35.053Z,12.00
2018-06-21T08:36:02.636Z,11.80
2018-06-21T08:38:30.259Z,11.27
2018-06-21T08:40:58.418Z,12.10
2018-06-21T08:43:26.083Z,11.57
2018-06-21T08:45:54.220Z,10.90
2018-06-21T08:48:21.765Z,11.60
2018-06-21T08:50:49.380Z,12.30
2018-06-21T08:53:16.965Z,11.20
2018-06-21T08:55:45.759Z,10.87
2018-06-21T08:58:13.341Z,10.83
2018-06-21T09:00:40.920Z,11.43
2018-06-21T09:03:09.270Z,12.50
2018-06-21T09:05:36.945Z,10.80
2018-06-21T09:08:04.981Z,11.70
2018-06-21T09:10:32.532Z,10.97
2018-06-21T09:13:00.090Z,11.67
2018-06-21T09:15:27.772Z,11.03
2018-06-21T09:17:55.310Z,11.70
2018-06-21T09:20:22.883Z,11.10
2018-06-21T09:22:50.442Z,11.80
2018-06-21T09:25:18.115Z,10.67
2018-06-21T09:27:45.679Z,11.10
2018-06-21T09:30:13.284Z,11.07
2018-06-21T09:32:40.841Z,11.33
2018-06-21T09:35:08.496Z,9.90
2018-06-21T09:37:41.481Z,10.50
2018-06-21T09:40:14.238Z,9.43
2018-06-21T09:42:47.099Z,9.77
2018-06-21T09:46:17.517Z,9.40
2018-06-21T09:48:49.350Z,11.03
2018-06-21T09:51:16.940Z,8.57
2018-06-21T09:53:44.533Z,9.40
2018-06-21T09:56:12.152Z,10.00
2018-06-21T09:58:39.728Z,9.20
2018-06-21T10:01:07.301Z,8.50
2018-06-21T10:03:34.895Z,10.00
2018-06-21T10:06:02.539Z,8.33
2018-06-21T10:08:30.185Z,8.10
2018-06-21T10:10:57.860Z,8.50
2018-06-21T10:13:25.633Z,8.30
2018-06-21T10:15:53.578Z,7.97
2018-06-21T10:18:21.238Z,8.23
2018-06-21T10:20:48.844Z,7.97
2018-06-21T10:23:16.566Z,7.30
2018-06-21T10:25:44.181Z,8.83
2018-06-21T10:28:11.788Z,7.93
2018-06-21T10:30:39.378Z,8.20
2018-06-21T10:33:06.972Z,7.80
2018-06-21T10:35:34.689Z,7.37
2018-06-21T10:38:02.339Z,8.27
2018-06-21T10:40:30.000Z,8.30
2018-06-21T10:42:57.885Z,8.07
2018-06-21T10:45:25.637Z,7.50
2018-06-21T10:47:53.243Z,6.50
2018-06-21T10:50:20.869Z,7.27
2018-06-21T10:52:48.902Z,7.13
2018-06-21T10:55:16.580Z,8.30
2018-06-21T10:57:44.166Z,9.30
2018-06-21T11:00:11.761Z,9.10
2018-06-21T11:02:39.393Z,9.07
2018-06-21T11:05:07.471Z,8.97
2018-06-21T11:07:35.068Z,7.77
2018-06-21T11:10:02.676Z,8.60
2018-06-21T11:12:30.332Z,6.80
2018-06-21T11:14:57.905Z,7.37
2018-06-21T11:17:25.572Z,7.50
2018-06-21T11:19:55.238Z,7.50
2018-06-21T11:22:23.088Z,7.97
2018-06-21T11:24:50.698Z,8.23
2018-06-21T11:27:18.362Z,8.37
2018-06-21T11:29:46.003Z,8.33
2018-06-21T11:32:13.689Z,8.50
2018-06-21T11:34:41.284Z,7.93
2018-06-21T11:37:08.987Z,7.23
2018-06-21T11:39:37.084Z,7.80
2018-06-21T11:42:04.733Z,8.93
2018-06-21T11:44:32.401Z,10.27
2018-06-21T11:47:00.276Z,8.27
2018-06-21T11:49:27.958Z,8.33
2018-06-21T11:51:55.554Z,9.00
2018-06-21T11:54:23.189Z,8.50
2018-06-21T11:56:50.943Z,9.70
2018-06-21T11:59:18.605Z,8.90
2018-06-21T12:01:46.248Z,8.33
2018-06-21T12:04:13.897Z,8.10
2018-06-21T12:06:41.594Z,9.00
2018-06-21T12:09:09.980Z,7.97
2018-06-21T12:11:37.595Z,8.03
2018-06-21T12:14:05.426Z,9.60
2018-06-21T12:16:33.001Z,9.20
2018-06-21T12:19:00.897Z,8.00
2018-06-21T12:21:28.564Z,8.77
2018-06-21T12:23:56.181Z,8.40
2018-06-21T12:26:23.818Z,7.73
2018-06-21T12:28:51.464Z,8.43
2018-06-21T12:31:19.106Z,8.20
2018-06-21T12:33:46.720Z,8.30
2018-06-21T12:36:14.324Z,8.07
2018-06-21T12:38:42.005Z,8.30
2018-06-21T12:41:09.665Z,8.50
2018-06-21T12:43:37.370Z,8.80
2018-06-21T12:46:05.008Z,8.37
2018-06-21T12:48:32.648Z,8.20
2018-06-21T12:51:00.321Z,8.87
2018-06-21T12:53:27.920Z,8.23
2018-06-21T12:55:55.803Z,8.50
2018-06-21T12:58:32.482Z,9.30
2018-06-21T13:01:11.990Z,7.57
2018-06-21T13:03:48.186Z,8.43
2018-06-21T13:06:15.875Z,8.37
2018-06-21T13:08:48.989Z,7.57
2018-06-21T13:12:21.456Z,7.63
2018-06-21T13:14:49.108Z,8.13
2018-06-21T13:17:16.793Z,7.90
2018-06-21T13:19:44.393Z,8.40
2018-06-21T13:22:12.025Z,7.93
2018-06-21T13:24:39.578Z,8.67
2018-06-21T13:27:07.162Z,8.43
2018-06-21T13:29:34.741Z,8.33
2018-06-21T13:32:13.914Z,9.00
2018-06-21T13:34:50.351Z,8.97
2018-06-21T13:37:25.773Z,8.97
2018-06-21T13:39:53.389Z,8.50
2018-06-21T13:42:21.040Z,9.10
2018-06-21T13:44:48.726Z,8.80
2018-06-21T13:47:16.299Z,8.23
2018-06-21T13:49:43.960Z,8.90
2018-06-21T13:52:11.695Z,8.40
2018-06-21T13:54:39.360Z,8.60
2018-06-21T13:57:07.005Z,8.20
2018-06-21T13:59:34.583Z,8.10
2018-06-21T14:02:02.168Z,8.50
2018-06-21T14:04:29.813Z,7.97
2018-06-21T14:06:57.480Z,8.27
2018-06-21T14:09:25.107Z,8.67
2018-06-21T14:11:52.699Z,8.77
2018-06-21T14:14:20.373Z,8.43
2018-06-21T14:16:47.926Z,7.93
2018-06-21T14:19:15.529Z,8.57
2018-06-21T14:21:43.146Z,8.60
2018-06-21T14:24:12.224Z,7.73
2018-06-21T14:26:40.102Z,8.47
2018-06-21T14:29:07.753Z,7.43
2018-06-21T14:31:35.417Z,7.70
2018-06-21T14:34:03.021Z,8.20
2018-06-21T14:36:31.167Z,8.10
2018-06-21T14:38:59.328Z,8.20
2018-06-21T14:41:26.895Z,8.60
2018-06-21T14:43:54.557Z,8.30
2018-06-21T14:46:22.159Z,7.73
2018-06-21T14:48:49.825Z,7.77
2018-06-21T14:51:17.529Z,8.13
2018-06-21T14:53:45.297Z,7.43
2018-06-21T14:56:13.062Z,7.93
2018-06-21T14:58:40.961Z,8.30
2018-06-21T15:01:08.617Z,8.07
2018-06-21T15:03:36.436Z,7.27
2018-06-21T15:06:04.137Z,7.77
2018-06-21T15:08:31.753Z,8.03
2018-06-21T15:10:59.399Z,7.90
2018-06-21T15:13:27.020Z,7.77
2018-06-21T15:15:54.692Z,7.67
2018-06-21T15:18:22.268Z,8.27
2018-06-21T15:20:49.877Z,7.83
2018-06-21T15:23:24.107Z,8.80
2018-06-21T15:25:51.695Z,8.00
2018-06-21T15:28:19.320Z,8.17
2018-06-21T15:30:46.978Z,8.47
2018-06-21T15:33:14.590Z,8.00
2018-06-21T15:35:42.146Z,9.30
2018-06-21T15:38:09.784Z,8.30
2018-06-21T15:40:37.455Z,8.33
2018-06-21T15:43:05.061Z,9.63
2018-06-21T15:45:32.730Z,9.40
2018-06-21T15:48:00.356Z,9.40
2018-06-21T15:50:28.018Z,9.50
2018-06-21T15:52:55.676Z,8.93
2018-06-21T15:55:23.313Z,9.60
2018-06-21T15:57:50.908Z,9.77
2018-06-21T16:00:18.544Z,9.87
2018-06-21T16:02:46.846Z,10.30
2018-06-21T16:05:14.550Z,10.20
2018-06-21T16:07:42.157Z,10.20
2018-06-21T16:10:09.779Z,10.13
2018-06-21T16:12:37.393Z,9.50
2018-06-21T16:15:04.999Z,10.30
2018-06-21T16:17:33.507Z,10.97
2018-06-21T16:20:01.091Z,9.90
2018-06-21T16:22:28.681Z,9.10
2018-06-21T16:24:56.258Z,10.50
2018-06-21T16:27:23.943Z,10.90
2018-06-21T16:29:51.530Z,10.17
2018-06-21T16:32:19.208Z,11.10
2018-06-21T16:34:46.847Z,10.67
2018-06-21T16:37:14.473Z,11.90
2018-06-21T16:39:42.062Z,11.80
2018-06-21T16:42:09.725Z,12.70
2018-06-21T16:44:37.350Z,12.30
2018-06-21T16:47:04.956Z,12.00
2018-06-21T16:49:32.632Z,11.60
2018-06-21T16:52:00.225Z,11.70
2018-06-21T16:54:27.856Z,11.53
2018-06-21T16:56:55.542Z,12.33
2018-06-21T16:59:23.253Z,11.43
2018-06-21T17:01:50.835Z,12.17
2018-06-21T17:04:18.453Z,11.80
2018-06-21T17:06:46.073Z,6.20
2018-06-21T17:09:13.714Z,4.97
2018-06-21T17:11:41.935Z,3.60
2018-06-21T17:14:09.545Z,4.37
2018-06-21T17:16:37.410Z,3.60
2018-06-21T17:19:05.339Z,3.67
2018-06-21T17:21:33.019Z,3.30
2018-06-21T17:24:00.657Z,3.80
2018-06-21T17:26:28.268Z,3.70
2018-06-21T17:28:55.915Z,3.50
2018-06-21T17:31:23.589Z,3.80
2018-06-21T17:33:51.180Z,4.30
2018-06-21T17:36:18.891Z,4.77
2018-06-21T17:38:46.489Z,3.40
2018-06-21T17:41:14.092Z,4.17
2018-06-21T17:43:41.723Z,4.60
2018-06-21T17:46:09.320Z,3.87
2018-06-21T17:48:36.943Z,4.87
2018-06-21T17:51:04.579Z,5.33
2018-06-21T17:53:32.214Z,6.93
2018-06-21T17:55:59.829Z,5.07
2018-06-21T17:58:27.461Z,7.07
2018-06-21T18:00:55.048Z,6.77
2018-06-21T18:03:25.394Z,5.17
2018-06-21T18:05:52.997Z,5.17
2018-06-21T18:08:20.610Z,5.40
2018-06-21T18:10:48.264Z,4.97
2018-06-21T18:13:15.884Z,6.17
2018-06-21T18:15:43.535Z,5.73
2018-06-21T18:18:11.185Z,5.10
2018-06-21T18:20:40.003Z,4.53
2018-06-21T18:23:07.666Z,4.70
2018-06-21T18:25:35.356Z,4.60
2018-06-21T18:28:03.026Z,5.17
2018-06-21T18:30:30.659Z,5.50
2018-06-21T18:32:58.351Z,4.97
2018-06-21T18:35:26.715Z,5.50
2018-06-21T18:37:54.354Z,4.97
2018-06-21T18:40:22.009Z,5.57
2018-06-21T18:42:49.636Z,5.40
2018-06-21T18:45:18.199Z,5.37
2018-06-21T18:47:45.833Z,5.20
2018-06-21T18:50:13.524Z,5.60
2018-06-21T18:52:42.379Z,5.43
2018-06-21T18:55:10.005Z,5.20
2018-06-21T18:57:39.580Z,5.80
2018-06-21T19:00:08.121Z,6.13
2018-06-21T19:02:35.721Z,6.43
2018-06-21T19:05:03.414Z,6.50
2018-06-21T19:07:33.192Z,6.27
2018-06-21T19:10:06.134Z,7.00
2018-06-21T19:12:35.564Z,7.67
2018-06-21T19:15:03.418Z,8.00
2018-06-21T19:17:31.270Z,6.80
2018-06-21T19:19:58.920Z,6.80
2018-06-21T19:22:26.728Z,6.53
2018-06-21T19:24:54.442Z,7.60
2018-06-21T19:27:22.380Z,6.97
2018-06-21T19:29:50.079Z,7.17
2018-06-21T19:32:17.723Z,6.67
2018-06-21T19:34:45.349Z,7.70
2018-06-21T19:37:13.509Z,7.53
2018-06-21T19:39:41.386Z,6.93
2018-06-21T19:42:09.018Z,6.40
2018-06-21T19:44:36.749Z,7.50
2018-06-21T19:47:04.413Z,7.00
2018-06-21T19:49:32.042Z,7.00
2018-06-21T19:52:01.019Z,7.20
2018-06-21T19:54:28.749Z,6.50
2018-06-21T19:56:56.451Z,6.50
2018-06-21T19:59:24.171Z,5.60
2018-06-21T20:01:51.828Z,6.70
2018-06-21T20:04:19.514Z,6.20
2018-06-21T20:06:47.251Z,7.17
2018-06-21T20:09:14.880Z,6.27
2018-06-21T20:11:42.527Z,6.70
2018-06-21T20:14:10.153Z,7.47
2018-06-21T20:16:37.794Z,6.60
2018-06-21T20:19:11.508Z,6.37
2018-06-21T20:21:39.234Z,7.00
2018-06-21T20:24:07.017Z,6.10
2018-06-21T20:26:34.661Z,6.23
2018-06-21T20:29:02.370Z,6.63
2018-06-21T20:31:30.075Z,6.80
2018-06-21T20:33:57.691Z,7.13
2018-06-21T20:36:30.166Z,6.30
2018-06-21T20:39:13.580Z,6.97
2018-06-21T20:41:41.273Z,6.73
2018-06-21T20:44:08.967Z,6.10
2018-06-21T20:46:37.756Z,7.20
2018-06-21T20:49:05.432Z,7.13
2018-06-21T20:51:33.102Z,6.90
2018-06-21T20:54:00.710Z,6.60
2018-06-21T20:56:28.336Z,5.83
2018-06-21T20:58:55.998Z,6.50
2018-06-21T21:01:25.248Z,5.87
2018-06-21T21:03:52.879Z,6.20
2018-06-21T21:06:20.531Z,6.60
2018-06-21T21:08:48.152Z,6.93
2018-06-21T21:11:15.780Z,6.90
2018-06-21T21:13:43.418Z,6.60
2018-06-21T21:16:11.045Z,7.00
2018-06-21T21:18:38.642Z,6.03
2018-06-21T21:21:06.813Z,7.47
2018-06-21T21:23:34.433Z,7.03
2018-06-21T21:26:02.047Z,7.40
2018-06-21T21:28:29.654Z,7.20
2018-06-21T21:30:57.220Z,6.80
2018-06-21T21:33:24.831Z,6.67
2018-06-21T21:35:52.502Z,6.10
2018-06-21T21:38:20.102Z,6.63
2018-06-21T21:40:47.687Z,6.33
2018-06-21T21:43:15.377Z,7.20
2018-06-21T21:45:43.004Z,6.50
2018-06-21T21:48:10.597Z,6.30
2018-06-21T21:50:38.210Z,6.10
2018-06-21T21:53:05.816Z,5.73
2018-06-21T21:55:33.435Z,5.47
2018-06-21T21:58:01.036Z,5.80
2018-06-21T22:00:45.986Z,6.13
2018-06-21T22:03:13.673Z,6.97
2018-06-21T22:05:41.600Z,6.20
2018-06-21T22:08:09.651Z,6.40
2018-06-21T22:10:38.237Z,6.90
2018-06-21T22:13:05.867Z,6.80
2018-06-21T22:15:33.475Z,6.43
2018-06-21T22:18:01.109Z,6.80
2018-06-21T22:20:28.729Z,7.43
2018-06-21T22:22:57.103Z,9.27
2018-06-21T22:25:24.708Z,7.70
2018-06-21T22:27:52.284Z,8.17
2018-06-21T22:30:19.889Z,7.93
2018-06-21T22:32:47.560Z,7.93
2018-06-21T22:35:15.168Z,8.30
2018-06-21T22:37:42.783Z,8.10
2018-06-21T22:40:10.409Z,8.57
2018-06-21T22:42:37.996Z,9.33
2018-06-21T22:45:05.639Z,9.40
2018-06-21T22:47:33.235Z,8.23
2018-06-21T22:50:00.853Z,8.50
2018-06-21T22:52:28.462Z,8.30
2018-06-21T22:54:56.069Z,8.37
2018-06-21T22:57:23.669Z,7.70
2018-06-21T22:59:51.300Z,7.80
2018-06-21T23:02:19.266Z,7.57
2018-06-21T23:04:46.948Z,8.30
2018-06-21T23:07:14.589Z,6.90
2018-06-21T23:09:42.232Z,6.80
2018-06-21T23:12:09.853Z,7.00
2018-06-21T23:14:37.490Z,7.10
2018-06-21T23:17:05.151Z,7.40
2018-06-21T23:19:33.619Z,6.50
2018-06-21T23:22:02.233Z,7.30
2018-06-21T23:24:29.873Z,6.80
2018-06-21T23:26:57.450Z,7.30
2018-06-21T23:29:25.062Z,6.40
2018-06-21T23:31:52.704Z,7.23
2018-06-21T23:34:21.017Z,6.90
2018-06-21T23:36:48.994Z,5.93
2018-06-21T23:39:16.605Z,6.23
2018-06-21T23:41:44.416Z,7.47
2018-06-21T23:44:13.302Z,8.57
2018-06-21T23:46:41.461Z,8.40
2018-06-21T23:49:09.040Z,8.13
2018-06-21T23:51:37.326Z,8.10
2018-06-21T23:54:04.965Z,8.50
2018-06-21T23:56:32.613Z,9.80
2018-06-21T23:59:00.315Z,9.30
